Dades meteomassalio
Diari Summary for Febrer 12, 2017 Units:  Metric    English   Both
« Previous Day
Next Day »
Diari Semanal Mensual Anual Personalitzat
  Maxima: Minima: Mijana:
Temperatura: 14.3 °C 9.8 °C 12 °C
Rosada: 8.7 °C 7.4 °C 8.2 °C
Humitat: 90 % 65 % 78 %
Velocitat del vent: 42.6 km/h 0.0 km/h 21.5 km/h
Racha vent: 42.6 km/h - -
Vent:- - ESE
Pressio: 1011.7 hPa 1008.0 hPa -
Pluja: 0.0 mm    
Historical Graphs
 
 
Tabular Data for Febrer 12, 2017
Time Temperature Dew Point Pressure Wind Wind Speed Wind Gust Humidity Rainfall Rate (Hourly) solar Conditions
00:01 9.8 °C 8.3 °C 1011.7 hPa East 13.0 km/h 13.0 km/h 90 % 0.0 mm 0.0 W/m2 RA
00:06 9.9 °C 8.4 °C 1011.7 hPa East 13.0 km/h 13.0 km/h 90 % 0.0 mm 0.0 W/m2 CLR
00:11 10.1 °C 8.5 °C 1011.7 hPa East 7.4 km/h 7.4 km/h 90 % 0.0 mm 0.0 W/m2 CLR
00:16 10.1 °C 8.5 °C 1011.7 hPa ESE 13.0 km/h 13.0 km/h 90 % 0.0 mm 0.0 W/m2 CLR
00:21 10.2 °C 8.4 °C 1011.7 hPa East 13.0 km/h 13.0 km/h 89 % 0.0 mm 0.0 W/m2 CLR
00:26 10.1 °C 8.4 °C 1011.7 hPa East 7.4 km/h 7.4 km/h 89 % 0.0 mm 0.0 W/m2 CLR
00:31 10.1 °C 8.4 °C 1011.7 hPa Calm     89 % 0.0 mm 0.0 W/m2 CLR
00:36 10.1 °C 8.3 °C 1011.7 hPa East 5.6 km/h 5.6 km/h 89 % 0.0 mm 0.0 W/m2 CLR
00:41 10.1 °C 8.4 °C 1011.7 hPa East 7.4 km/h 7.4 km/h 89 % 0.0 mm 0.0 W/m2 CLR
00:46 10.1 °C 8.3 °C 1011.7 hPa East 5.6 km/h 5.6 km/h 89 % 0.0 mm 0.0 W/m2 CLR
00:51 10.0 °C 8.4 °C 1011.4 hPa East 14.8 km/h 14.8 km/h 90 % 0.0 mm 0.0 W/m2 CLR
00:56 10.1 °C 8.3 °C 1011.4 hPa East 14.8 km/h 14.8 km/h 89 % 0.0 mm 0.0 W/m2 CLR
01:01 10.2 °C 8.4 °C 1011.4 hPa East 14.8 km/h 14.8 km/h 89 % 0.0 mm 0.0 W/m2 CLR
01:06 10.2 °C 8.4 °C 1011.4 hPa East 14.8 km/h 14.8 km/h 89 % 0.0 mm 0.0 W/m2 CLR
01:12 10.2 °C 8.4 °C 1011.4 hPa East 13.0 km/h 13.0 km/h 89 % 0.0 mm 0.0 W/m2 CLR
01:17 10.3 °C 8.6 °C 1011.4 hPa ESE 18.5 km/h 18.5 km/h 89 % 0.0 mm 0.0 W/m2 CLR
01:22 10.3 °C 8.6 °C 1011.4 hPa ESE 18.5 km/h 18.5 km/h 89 % 0.0 mm 0.0 W/m2 CLR
01:27 10.3 °C 8.6 °C 1011.4 hPa ESE 14.8 km/h 14.8 km/h 89 % 0.0 mm 0.0 W/m2 CLR
01:32 10.3 °C 8.6 °C 1011.1 hPa ESE 20.4 km/h 20.4 km/h 89 % 0.0 mm 0.0 W/m2 CLR
01:37 10.4 °C 8.5 °C 1011.1 hPa ESE 22.2 km/h 22.2 km/h 88 % 0.0 mm 0.0 W/m2 CLR
01:42 10.6 °C 8.7 °C 1011.1 hPa ESE 19.3 km/h 19.3 km/h 88 % 0.0 mm 0.0 W/m2 CLR
01:47 10.6 °C 8.6 °C 1011.1 hPa ESE 14.8 km/h 14.8 km/h 87 % 0.0 mm 0.0 W/m2 CLR
01:52 10.7 °C 8.6 °C 1011.1 hPa ESE 18.5 km/h 18.5 km/h 87 % 0.0 mm 0.0 W/m2 CLR
01:57 10.6 °C 8.6 °C 1011.1 hPa ESE 13.0 km/h 13.0 km/h 87 % 0.0 mm 0.0 W/m2 CLR
02:02 10.6 °C 8.6 °C 1011.1 hPa ESE 18.5 km/h 18.5 km/h 87 % 0.0 mm 0.0 W/m2 CLR
02:07 10.7 °C 8.6 °C 1011.1 hPa ESE 18.5 km/h 18.5 km/h 87 % 0.0 mm 0.0 W/m2 CLR
02:12 10.6 °C 8.6 °C 1011.1 hPa East 17.7 km/h 17.7 km/h 87 % 0.0 mm 0.0 W/m2 CLR
02:17 10.6 °C 8.6 °C 1010.7 hPa ESE 24.1 km/h 24.1 km/h 87 % 0.0 mm 0.0 W/m2 CLR
02:22 10.6 °C 8.6 °C 1011.1 hPa ESE 18.5 km/h 18.5 km/h 87 % 0.0 mm 0.0 W/m2 CLR
02:27 10.6 °C 8.6 °C 1011.1 hPa ESE 13.0 km/h 13.0 km/h 87 % 0.0 mm 0.0 W/m2 CLR
02:32 10.7 °C 8.6 °C 1010.7 hPa ESE 18.5 km/h 18.5 km/h 87 % 0.0 mm 0.0 W/m2 CLR
02:37 10.7 °C 8.6 °C 1010.7 hPa ESE 14.8 km/h 14.8 km/h 87 % 0.0 mm 0.0 W/m2 CLR
02:42 10.7 °C 8.7 °C 1010.7 hPa ESE 22.2 km/h 22.2 km/h 87 % 0.0 mm 0.0 W/m2 CLR
02:47 10.7 °C 8.6 °C 1010.7 hPa ESE 18.5 km/h 18.5 km/h 87 % 0.0 mm 0.0 W/m2 CLR
02:52 10.7 °C 8.6 °C 1010.4 hPa ESE 18.5 km/h 18.5 km/h 87 % 0.0 mm 0.0 W/m2 CLR
02:57 10.7 °C 8.6 °C 1010.7 hPa ESE 18.5 km/h 18.5 km/h 87 % 0.0 mm 0.0 W/m2 CLR
03:02 10.7 °C 8.7 °C 1010.7 hPa ESE 25.9 km/h 25.9 km/h 87 % 0.0 mm 0.0 W/m2 CLR
03:07 10.8 °C 8.6 °C 1010.7 hPa ESE 18.5 km/h 18.5 km/h 86 % 0.0 mm 0.0 W/m2 CLR
03:12 10.8 °C 8.6 °C 1010.7 hPa ESE 27.8 km/h 27.8 km/h 86 % 0.0 mm 0.0 W/m2 CLR
03:17 10.8 °C 8.6 °C 1010.7 hPa ESE 18.5 km/h 18.5 km/h 86 % 0.0 mm 0.0 W/m2 CLR
03:22 10.8 °C 8.6 °C 1010.7 hPa ESE 18.5 km/h 18.5 km/h 86 % 0.0 mm 0.0 W/m2 CLR
03:27 10.8 °C 8.6 °C 1010.4 hPa ESE 14.8 km/h 14.8 km/h 86 % 0.0 mm 0.0 W/m2 CLR
03:32 10.7 °C 8.7 °C 1010.4 hPa ESE 20.9 km/h 20.9 km/h 87 % 0.0 mm 0.0 W/m2 CLR
03:37 10.7 °C 8.5 °C 1010.4 hPa ESE 18.5 km/h 18.5 km/h 86 % 0.0 mm 0.0 W/m2 CLR
03:42 10.7 °C 8.6 °C 1010.4 hPa ESE 18.5 km/h 18.5 km/h 87 % 0.0 mm 0.0 W/m2 CLR
03:47 10.6 °C 8.6 °C 1010.4 hPa ESE 18.5 km/h 18.5 km/h 87 % 0.0 mm 0.0 W/m2 CLR
03:52 10.6 °C 8.6 °C 1010.0 hPa ESE 18.5 km/h 18.5 km/h 87 % 0.0 mm 0.0 W/m2 CLR
03:57 10.7 °C 8.4 °C 1010.0 hPa ESE 16.7 km/h 16.7 km/h 86 % 0.0 mm 0.0 W/m2 CLR
04:02 10.6 °C 8.6 °C 1010.0 hPa ESE 22.2 km/h 22.2 km/h 87 % 0.0 mm 0.0 W/m2 CLR
04:07 10.7 °C 8.5 °C 1010.0 hPa ESE 18.5 km/h 18.5 km/h 86 % 0.0 mm 0.0 W/m2 CLR
04:12 10.7 °C 8.4 °C 1010.0 hPa ESE 20.9 km/h 20.9 km/h 86 % 0.0 mm 0.0 W/m2 CLR
04:17 10.7 °C 8.5 °C 1009.7 hPa ESE 18.5 km/h 18.5 km/h 86 % 0.0 mm 0.0 W/m2 CLR
04:22 10.7 °C 8.3 °C 1009.7 hPa ESE 29.0 km/h 29.0 km/h 85 % 0.0 mm 0.0 W/m2 CLR
04:27 10.8 °C 8.4 °C 1010.0 hPa ESE 24.1 km/h 24.1 km/h 85 % 0.0 mm 0.0 W/m2 CLR
04:32 10.8 °C 8.4 °C 1010.0 hPa ESE 18.5 km/h 18.5 km/h 85 % 0.0 mm 0.0 W/m2 CLR
04:37 10.8 °C 8.2 °C 1010.0 hPa ESE 14.8 km/h 14.8 km/h 84 % 0.0 mm 0.0 W/m2 CLR
04:42 10.9 °C 8.3 °C 1010.4 hPa ESE 22.5 km/h 22.5 km/h 84 % 0.0 mm 0.0 W/m2 CLR
04:47 10.9 °C 8.3 °C 1010.4 hPa ESE 25.9 km/h 25.9 km/h 84 % 0.0 mm 0.0 W/m2 CLR
04:52 10.9 °C 8.3 °C 1010.0 hPa ESE 16.7 km/h 16.7 km/h 84 % 0.0 mm 0.0 W/m2 CLR
04:57 10.8 °C 8.4 °C 1010.0 hPa ESE 27.8 km/h 27.8 km/h 85 % 0.0 mm 0.0 W/m2 CLR
05:02 10.8 °C 8.3 °C 1010.0 hPa ESE 18.5 km/h 18.5 km/h 85 % 0.0 mm 0.0 W/m2 CLR
05:07 10.7 °C 8.5 °C 1010.0 hPa ESE 22.2 km/h 22.2 km/h 86 % 0.0 mm 0.0 W/m2 CLR
05:12 10.8 °C 8.6 °C 1009.7 hPa ESE 25.9 km/h 25.9 km/h 86 % 0.0 mm 0.0 W/m2 CLR
05:17 10.9 °C 8.4 °C 1010.0 hPa ESE 20.4 km/h 20.4 km/h 85 % 0.0 mm 0.0 W/m2 CLR
05:22 10.9 °C 8.6 °C 1010.0 hPa ESE 22.2 km/h 22.2 km/h 86 % 0.0 mm 0.0 W/m2 CLR
05:27 10.8 °C 8.6 °C 1010.0 hPa ESE 18.5 km/h 18.5 km/h 86 % 0.0 mm 0.0 W/m2 CLR
05:32 10.8 °C 8.6 °C 1010.0 hPa ESE 18.5 km/h 18.5 km/h 86 % 0.0 mm 0.0 W/m2 CLR
05:37 10.9 °C 8.4 °C 1010.0 hPa ESE 18.5 km/h 18.5 km/h 85 % 0.0 mm 0.0 W/m2 CLR
05:42 10.8 °C 8.4 °C 1010.0 hPa ESE 18.5 km/h 18.5 km/h 85 % 0.0 mm 0.0 W/m2 CLR
05:47 10.9 °C 8.4 °C 1010.0 hPa ESE 14.8 km/h 14.8 km/h 85 % 0.0 mm 0.0 W/m2 CLR
05:52 10.9 °C 8.5 °C 1009.7 hPa ESE 18.5 km/h 18.5 km/h 85 % 0.0 mm 0.0 W/m2 CLR
05:57 11.0 °C 8.6 °C 1009.7 hPa ESE 13.0 km/h 13.0 km/h 85 % 0.0 mm 0.0 W/m2 CLR
06:02 10.9 °C 8.5 °C 1009.7 hPa ESE 8.0 km/h 9.7 km/h 85 % 0.0 mm 0.0 W/m2 CLR
06:07 10.9 °C 8.5 °C 1009.7 hPa ESE 11.1 km/h 11.1 km/h 85 % 0.0 mm 0.0 W/m2 CLR
06:12 10.9 °C 8.5 °C 1010.0 hPa ESE 13.0 km/h 13.0 km/h 85 % 0.0 mm 0.0 W/m2 CLR
06:17 10.9 °C 8.5 °C 1009.7 hPa ESE 20.4 km/h 20.4 km/h 85 % 0.0 mm 0.0 W/m2 CLR
06:22 10.9 °C 8.5 °C 1009.7 hPa ESE 24.1 km/h 24.1 km/h 85 % 0.0 mm 0.0 W/m2 CLR
06:27 11.0 °C 8.6 °C 1009.7 hPa ESE 18.5 km/h 18.5 km/h 85 % 0.0 mm 0.0 W/m2 CLR
06:32 10.9 °C 8.5 °C 1009.7 hPa ESE 18.5 km/h 18.5 km/h 85 % 0.0 mm 0.0 W/m2 CLR
06:37 10.9 °C 8.4 °C 1009.7 hPa ESE 13.0 km/h 13.0 km/h 85 % 0.0 mm 0.0 W/m2 CLR
06:42 10.9 °C 8.5 °C 1010.0 hPa ESE 14.8 km/h 14.8 km/h 85 % 0.0 mm 0.0 W/m2 CLR
06:47 10.9 °C 8.3 °C 1010.0 hPa SE 14.8 km/h 14.8 km/h 84 % 0.0 mm 0.0 W/m2 CLR
06:52 11.1 °C 8.4 °C 1010.4 hPa ESE 14.8 km/h 14.8 km/h 84 % 0.0 mm 0.0 W/m2 CLR
06:58 11.1 °C 8.5 °C 1010.0 hPa SE 14.8 km/h 14.8 km/h 84 % 0.0 mm 0.0 W/m2 CLR
07:03 11.1 °C 8.4 °C 1010.0 hPa ESE 13.0 km/h 13.0 km/h 84 % 0.0 mm 0.0 W/m2 CLR
07:08 11.0 °C 8.4 °C 1010.0 hPa ESE 14.8 km/h 14.8 km/h 84 % 0.0 mm 0.0 W/m2 CLR
07:13 11.0 °C 8.4 °C 1010.0 hPa ESE 11.1 km/h 11.1 km/h 84 % 0.0 mm 0.0 W/m2 CLR
07:18 11.0 °C 8.4 °C 1010.0 hPa ESE 16.7 km/h 16.7 km/h 84 % 0.0 mm 0.0 W/m2 CLR
07:23 11.1 °C 8.3 °C 1010.0 hPa ESE 11.1 km/h 11.1 km/h 83 % 0.0 mm 0.0 W/m2 CLR
07:28 11.1 °C 8.3 °C 1009.7 hPa ESE 9.3 km/h 9.3 km/h 83 % 0.0 mm 0.0 W/m2 CLR
07:33 11.1 °C 8.3 °C 1009.7 hPa ESE 14.8 km/h 14.8 km/h 83 % 0.0 mm 0.0 W/m2 CLR
07:38 11.1 °C 8.3 °C 1010.0 hPa ESE 16.7 km/h 16.7 km/h 83 % 0.0 mm 0.0 W/m2 CLR
07:43 11.1 °C 8.3 °C 1010.0 hPa ESE 13.0 km/h 13.0 km/h 83 % 0.0 mm 0.0 W/m2 CLR
07:48 11.2 °C 8.4 °C 1010.0 hPa ESE 18.5 km/h 18.5 km/h 83 % 0.0 mm 0.0 W/m2 OVC
07:53 11.2 °C 8.4 °C 1010.0 hPa ESE 14.5 km/h 14.5 km/h 83 % 0.0 mm 0.0 W/m2 OVC
07:58 11.2 °C 8.4 °C 1010.0 hPa ESE 18.5 km/h 18.5 km/h 83 % 0.0 mm 0.0 W/m2 OVC
08:03 11.2 °C 8.4 °C 1010.0 hPa ESE 22.2 km/h 22.2 km/h 83 % 0.0 mm 0.0 W/m2 OVC
08:08 11.2 °C 8.3 °C 1010.0 hPa ESE 18.5 km/h 18.5 km/h 82 % 0.0 mm 5.0 W/m2 OVC
08:13 11.3 °C 8.3 °C 1010.0 hPa ESE 27.8 km/h 27.8 km/h 82 % 0.0 mm 9.0 W/m2 BKN
08:18 11.3 °C 8.3 °C 1010.0 hPa ESE 24.1 km/h 24.1 km/h 82 % 0.0 mm 16.0 W/m2 BKN
08:23 11.3 °C 8.2 °C 1010.0 hPa ESE 16.1 km/h 16.1 km/h 81 % 0.0 mm 19.0 W/m2 BKN
08:28 11.3 °C 8.1 °C 1010.0 hPa ESE 16.7 km/h 16.7 km/h 81 % 0.0 mm 23.0 W/m2 BKN
08:33 11.3 °C 8.1 °C 1010.0 hPa ESE 24.1 km/h 24.1 km/h 81 % 0.0 mm 26.0 W/m2 BKN
08:38 11.3 °C 8.1 °C 1010.0 hPa ESE 18.5 km/h 18.5 km/h 81 % 0.0 mm 32.0 W/m2 BKN
08:43 11.2 °C 8.1 °C 1010.0 hPa ESE 22.2 km/h 22.2 km/h 81 % 0.0 mm 42.0 W/m2 BKN
08:48 11.2 °C 8.1 °C 1010.0 hPa ESE 20.4 km/h 20.4 km/h 81 % 0.0 mm 49.0 W/m2 SCT
08:53 11.2 °C 8.2 °C 1010.0 hPa ESE 18.5 km/h 18.5 km/h 82 % 0.0 mm 58.0 W/m2 SCT
08:58 11.3 °C 8.2 °C 1010.0 hPa ESE 22.2 km/h 22.2 km/h 81 % 0.0 mm 67.0 W/m2 SCT
09:03 11.3 °C 8.2 °C 1010.0 hPa ESE 18.5 km/h 18.5 km/h 81 % 0.0 mm 72.0 W/m2 SCT
09:08 11.3 °C 8.2 °C 1010.4 hPa ESE 16.7 km/h 16.7 km/h 81 % 0.0 mm 74.0 W/m2 FEW
09:13 11.3 °C 8.4 °C 1010.4 hPa ESE 18.5 km/h 18.5 km/h 82 % 0.0 mm 81.0 W/m2 FEW
09:18 11.4 °C 8.3 °C 1010.4 hPa ESE 13.0 km/h 13.0 km/h 81 % 0.0 mm 88.0 W/m2 FEW
09:23 11.5 °C 8.3 °C 1010.7 hPa ESE 19.3 km/h 19.3 km/h 81 % 0.0 mm 86.0 W/m2 FEW
09:28 11.6 °C 8.2 °C 1010.7 hPa ESE 14.8 km/h 14.8 km/h 80 % 0.0 mm 100.0 W/m2 CLR
09:33 11.6 °C 8.3 °C 1010.4 hPa ESE 16.7 km/h 16.7 km/h 80 % 0.0 mm 114.0 W/m2 CLR
09:38 11.7 °C 8.3 °C 1010.4 hPa ESE 16.7 km/h 16.7 km/h 80 % 0.0 mm 130.0 W/m2 CLR
09:43 11.8 °C 8.3 °C 1010.4 hPa ESE 24.1 km/h 24.1 km/h 79 % 0.0 mm 146.0 W/m2 CLR
09:48 11.8 °C 8.3 °C 1010.4 hPa ESE 16.7 km/h 16.7 km/h 79 % 0.0 mm 155.0 W/m2 CLR
09:53 11.9 °C 8.2 °C 1010.4 hPa ESE 20.4 km/h 20.4 km/h 78 % 0.0 mm 149.0 W/m2 CLR
09:58 11.9 °C 8.2 °C 1010.4 hPa ESE 18.5 km/h 18.5 km/h 78 % 0.0 mm 139.0 W/m2 CLR
10:03 12.0 °C 8.3 °C 1010.4 hPa ESE 24.1 km/h 24.1 km/h 78 % 0.0 mm 160.0 W/m2 CLR
10:08 12.1 °C 8.3 °C 1010.4 hPa ESE 24.1 km/h 24.1 km/h 78 % 0.0 mm 160.0 W/m2 CLR
10:13 12.2 °C 8.3 °C 1010.4 hPa ESE 24.1 km/h 24.1 km/h 77 % 0.0 mm 162.0 W/m2 CLR
10:18 12.2 °C 8.3 °C 1010.4 hPa ESE 22.2 km/h 22.2 km/h 77 % 0.0 mm 178.0 W/m2 CLR
10:23 12.2 °C 8.3 °C 1010.4 hPa ESE 22.5 km/h 22.5 km/h 77 % 0.0 mm 199.0 W/m2 CLR
10:28 12.3 °C 8.2 °C 1010.0 hPa ESE 31.5 km/h 31.5 km/h 76 % 0.0 mm 202.0 W/m2 CLR
10:33 12.4 °C 8.3 °C 1010.4 hPa ESE 29.6 km/h 29.6 km/h 76 % 0.0 mm 195.0 W/m2 CLR
10:38 12.4 °C 8.3 °C 1010.4 hPa ESE 16.7 km/h 16.7 km/h 76 % 0.0 mm 176.0 W/m2 CLR
10:43 12.5 °C 8.2 °C 1010.4 hPa ESE 24.1 km/h 24.1 km/h 75 % 0.0 mm 160.0 W/m2 CLR
10:48 12.6 °C 8.1 °C 1010.4 hPa ESE 31.5 km/h 31.5 km/h 74 % 0.0 mm 160.0 W/m2 CLR
10:53 12.6 °C 8.5 °C 1010.4 hPa ESE 20.9 km/h 20.9 km/h 76 % 0.0 mm 130.0 W/m2 CLR
10:58 12.6 °C 8.3 °C 1010.4 hPa SE 11.1 km/h 11.1 km/h 75 % 0.0 mm 197.0 W/m2 CLR
11:03 12.7 °C 8.2 °C 1010.4 hPa SE 24.1 km/h 24.1 km/h 74 % 0.0 mm 257.0 W/m2 CLR
11:08 12.8 °C 8.1 °C 1010.4 hPa SE 24.1 km/h 24.1 km/h 73 % 0.0 mm 341.0 W/m2 CLR
11:13 13.0 °C 7.9 °C 1010.7 hPa ESE 27.8 km/h 27.8 km/h 71 % 0.0 mm 318.0 W/m2 CLR
11:18 13.0 °C 8.1 °C 1010.7 hPa SE 25.9 km/h 25.9 km/h 72 % 0.0 mm 313.0 W/m2 CLR
11:23 13.0 °C 8.1 °C 1010.7 hPa SE 22.2 km/h 22.2 km/h 72 % 0.0 mm 216.0 W/m2 CLR
11:28 13.0 °C 8.1 °C 1010.7 hPa ESE 24.1 km/h 24.1 km/h 72 % 0.0 mm 239.0 W/m2 CLR
11:33 13.0 °C 8.3 °C 1010.7 hPa SE 16.7 km/h 16.7 km/h 73 % 0.0 mm 237.0 W/m2 CLR
11:38 13.0 °C 8.3 °C 1011.1 hPa SE 24.1 km/h 24.1 km/h 73 % 0.0 mm 253.0 W/m2 CLR
11:43 13.1 °C 8.4 °C 1011.1 hPa SE 19.3 km/h 19.3 km/h 73 % 0.0 mm 243.0 W/m2 CLR
11:48 13.2 °C 8.3 °C 1010.7 hPa ESE 25.9 km/h 25.9 km/h 72 % 0.0 mm 573.0 W/m2 CLR
11:53 13.3 °C 8.3 °C 1010.7 hPa ESE 25.9 km/h 25.9 km/h 72 % 0.0 mm 448.0 W/m2 CLR
11:58 13.3 °C 8.4 °C 1010.4 hPa ESE 24.1 km/h 24.1 km/h 72 % 0.0 mm 362.0 W/m2 CLR
12:03 13.3 °C 8.2 °C 1010.4 hPa ESE 29.6 km/h 29.6 km/h 71 % 0.0 mm 420.0 W/m2 CLR
12:08 13.4 °C 8.4 °C 1010.4 hPa ESE 20.4 km/h 20.4 km/h 72 % 0.0 mm 406.0 W/m2 CLR
12:13 13.5 °C 8.3 °C 1010.4 hPa ESE 24.1 km/h 24.1 km/h 71 % 0.0 mm 396.0 W/m2 CLR
12:18 13.5 °C 8.3 °C 1010.4 hPa ESE 20.4 km/h 20.4 km/h 71 % 0.0 mm 415.0 W/m2 CLR
12:23 13.5 °C 8.1 °C 1010.4 hPa ESE 18.5 km/h 18.5 km/h 70 % 0.0 mm 424.0 W/m2 CLR
12:28 13.6 °C 8.2 °C 1010.4 hPa ESE 24.1 km/h 24.1 km/h 70 % 0.0 mm 432.0 W/m2 CLR
12:33 13.7 °C 8.5 °C 1010.4 hPa SE 20.9 km/h 20.9 km/h 71 % 0.0 mm 441.0 W/m2 CLR
12:39 13.7 °C 8.1 °C 1010.4 hPa SE 37.0 km/h 37.0 km/h 69 % 0.0 mm 499.0 W/m2 CLR
12:44 13.7 °C 8.3 °C 1010.4 hPa SE 22.5 km/h 22.5 km/h 70 % 0.0 mm 406.0 W/m2 CLR
12:49 13.7 °C 8.1 °C 1010.0 hPa SE 24.1 km/h 24.1 km/h 69 % 0.0 mm 515.0 W/m2 CLR
12:54 13.8 °C 8.0 °C 1010.4 hPa SE 29.6 km/h 29.6 km/h 68 % 0.0 mm 575.0 W/m2 CLR
12:59 13.8 °C 7.8 °C 1010.4 hPa SE 35.2 km/h 35.2 km/h 67 % 0.0 mm 295.0 W/m2 CLR
13:04 13.7 °C 7.9 °C 1010.0 hPa SE 29.6 km/h 29.6 km/h 68 % 0.0 mm 369.0 W/m2 CLR
13:09 13.8 °C 8.2 °C 1010.4 hPa SE 35.2 km/h 35.2 km/h 69 % 0.0 mm 443.0 W/m2 CLR
13:14 13.8 °C 8.0 °C 1010.4 hPa SE 20.4 km/h 20.4 km/h 68 % 0.0 mm 471.0 W/m2 CLR
13:19 13.8 °C 8.0 °C 1010.4 hPa SE 31.5 km/h 31.5 km/h 68 % 0.0 mm 436.0 W/m2 CLR
13:24 13.8 °C 8.0 °C 1010.0 hPa SE 27.8 km/h 27.8 km/h 68 % 0.0 mm 329.0 W/m2 CLR
13:29 13.9 °C 7.8 °C 1010.0 hPa ESE 33.3 km/h 33.3 km/h 67 % 0.0 mm 334.0 W/m2 CLR
13:34 13.8 °C 8.2 °C 1010.0 hPa ESE 22.2 km/h 22.2 km/h 69 % 0.0 mm 413.0 W/m2 CLR
13:39 13.9 °C 7.6 °C 1010.0 hPa SE 42.6 km/h 42.6 km/h 66 % 0.0 mm 366.0 W/m2 CLR
13:44 13.7 °C 7.7 °C 1009.7 hPa SE 29.6 km/h 29.6 km/h 67 % 0.0 mm 301.0 W/m2 CLR
13:49 13.7 °C 8.1 °C 1009.7 hPa SE 22.2 km/h 22.2 km/h 69 % 0.0 mm 281.0 W/m2 CLR
13:54 13.6 °C 8.0 °C 1009.7 hPa ESE 25.9 km/h 25.9 km/h 69 % 0.0 mm 265.0 W/m2 CLR
13:59 13.6 °C 8.0 °C 1009.7 hPa SE 25.9 km/h 25.9 km/h 69 % 0.0 mm 406.0 W/m2 CLR
14:04 13.6 °C 8.0 °C 1009.4 hPa SE 31.5 km/h 31.5 km/h 69 % 0.0 mm 497.0 W/m2 CLR
14:09 13.7 °C 8.1 °C 1009.4 hPa ESE 33.3 km/h 33.3 km/h 69 % 0.0 mm 517.0 W/m2 CLR
14:14 13.8 °C 8.2 °C 1009.4 hPa ESE 35.2 km/h 35.2 km/h 69 % 0.0 mm 543.0 W/m2 CLR
14:19 14.1 °C 8.2 °C 1009.0 hPa ESE 25.9 km/h 25.9 km/h 68 % 0.0 mm 582.0 W/m2 CLR
14:24 14.1 °C 8.4 °C 1009.0 hPa ESE 31.5 km/h 31.5 km/h 69 % 0.0 mm 654.0 W/m2 CLR
14:29 14.2 °C 8.4 °C 1009.0 hPa SE 27.8 km/h 27.8 km/h 68 % 0.0 mm 619.0 W/m2 CLR
14:34 14.2 °C 8.2 °C 1008.7 hPa ESE 27.8 km/h 27.8 km/h 67 % 0.0 mm 441.0 W/m2 CLR
14:39 14.2 °C 8.3 °C 1009.0 hPa ESE 33.3 km/h 33.3 km/h 68 % 0.0 mm 380.0 W/m2 CLR
14:44 14.2 °C 8.3 °C 1009.0 hPa ESE 31.5 km/h 31.5 km/h 68 % 0.0 mm 473.0 W/m2 CLR
14:49 14.3 °C 8.4 °C 1009.0 hPa ESE 29.0 km/h 29.0 km/h 68 % 0.0 mm 615.0 W/m2 CLR
14:54 14.2 °C 8.2 °C 1009.0 hPa SE 18.5 km/h 18.5 km/h 67 % 0.0 mm 461.0 W/m2 CLR
14:59 14.3 °C 8.3 °C 1009.0 hPa SE 27.8 km/h 27.8 km/h 67 % 0.0 mm 492.0 W/m2 CLR
15:04 14.3 °C 8.3 °C 1009.0 hPa SE 25.7 km/h 25.7 km/h 67 % 0.0 mm 450.0 W/m2 CLR
15:09 14.2 °C 8.2 °C 1009.0 hPa SE 31.5 km/h 31.5 km/h 67 % 0.0 mm 452.0 W/m2 CLR
15:14 14.2 °C 7.7 °C 1009.0 hPa ESE 24.1 km/h 24.1 km/h 65 % 0.0 mm 536.0 W/m2 CLR
15:19 14.1 °C 7.8 °C 1008.7 hPa ESE 33.3 km/h 33.3 km/h 66 % 0.0 mm 490.0 W/m2 CLR
15:24 14.3 °C 8.0 °C 1008.7 hPa ESE 29.6 km/h 29.6 km/h 66 % 0.0 mm 585.0 W/m2 CLR
15:29 14.3 °C 8.2 °C 1008.7 hPa SE 18.5 km/h 18.5 km/h 67 % 0.0 mm 455.0 W/m2 CLR
15:34 14.3 °C 8.2 °C 1008.7 hPa ESE 22.2 km/h 22.2 km/h 67 % 0.0 mm 292.0 W/m2 CLR
15:39 14.0 °C 7.5 °C 1009.0 hPa ESE 40.2 km/h 40.2 km/h 65 % 0.0 mm 260.0 W/m2 CLR
15:44 13.7 °C 7.7 °C 1008.7 hPa ESE 20.9 km/h 20.9 km/h 67 % 0.0 mm 193.0 W/m2 CLR
15:49 13.6 °C 7.8 °C 1008.7 hPa ESE 25.9 km/h 25.9 km/h 68 % 0.0 mm 213.0 W/m2 CLR
15:54 13.4 °C 7.9 °C 1008.7 hPa ESE 33.3 km/h 33.3 km/h 69 % 0.0 mm 167.0 W/m2 CLR
15:59 13.3 °C 8.0 °C 1008.7 hPa ESE 25.7 km/h 25.7 km/h 70 % 0.0 mm 174.0 W/m2 CLR
16:04 13.2 °C 7.9 °C 1008.7 hPa East 27.8 km/h 27.8 km/h 70 % 0.0 mm 192.0 W/m2 CLR
16:09 13.2 °C 7.9 °C 1008.7 hPa ESE 29.6 km/h 29.6 km/h 70 % 0.0 mm 209.0 W/m2 CLR
16:14 13.2 °C 7.9 °C 1008.4 hPa ESE 33.3 km/h 33.3 km/h 70 % 0.0 mm 239.0 W/m2 CLR
16:19 13.2 °C 8.1 °C 1008.4 hPa ESE 31.5 km/h 31.5 km/h 71 % 0.0 mm 262.0 W/m2 CLR
16:24 13.3 °C 8.0 °C 1008.4 hPa ESE 33.3 km/h 33.3 km/h 70 % 0.0 mm 287.0 W/m2 CLR
16:29 13.3 °C 7.9 °C 1008.4 hPa ESE 31.5 km/h 31.5 km/h 70 % 0.0 mm 274.0 W/m2 CLR
16:34 13.4 °C 8.0 °C 1008.4 hPa ESE 27.8 km/h 27.8 km/h 70 % 0.0 mm 258.0 W/m2 CLR
16:39 13.2 °C 7.9 °C 1008.4 hPa ESE 33.3 km/h 33.3 km/h 70 % 0.0 mm 158.0 W/m2 CLR
16:44 13.2 °C 7.8 °C 1008.4 hPa ESE 37.0 km/h 37.0 km/h 70 % 0.0 mm 169.0 W/m2 CLR
16:49 13.1 °C 7.9 °C 1008.0 hPa SE 32.2 km/h 32.2 km/h 71 % 0.0 mm 114.0 W/m2 CLR
16:54 13.0 °C 7.9 °C 1008.4 hPa ESE 35.2 km/h 35.2 km/h 71 % 0.0 mm 123.0 W/m2 CLR
16:59 12.9 °C 7.8 °C 1008.4 hPa ESE 24.1 km/h 24.1 km/h 71 % 0.0 mm 121.0 W/m2 CLR
17:04 12.9 °C 8.0 °C 1008.4 hPa SE 22.2 km/h 22.2 km/h 72 % 0.0 mm 118.0 W/m2 CLR
17:09 12.9 °C 8.0 °C 1008.7 hPa SE 24.1 km/h 24.1 km/h 72 % 0.0 mm 130.0 W/m2 CLR
17:14 13.0 °C 7.7 °C 1008.7 hPa SSE 31.5 km/h 31.5 km/h 70 % 0.0 mm 86.0 W/m2 CLR
17:20 12.9 °C 7.6 °C 1009.0 hPa SSE 27.8 km/h 27.8 km/h 70 % 0.0 mm 72.0 W/m2 CLR
17:25 12.9 °C 7.6 °C 1009.0 hPa SSE 33.3 km/h 33.3 km/h 70 % 0.0 mm 56.0 W/m2 FEW
17:30 12.9 °C 7.8 °C 1008.7 hPa SE 18.5 km/h 18.5 km/h 71 % 0.0 mm 56.0 W/m2 SCT
17:35 12.8 °C 7.9 °C 1009.0 hPa SE 22.2 km/h 22.2 km/h 72 % 0.0 mm 53.0 W/m2 SCT
17:40 12.7 °C 8.0 °C 1009.0 hPa SE 14.8 km/h 14.8 km/h 73 % 0.0 mm 58.0 W/m2 SCT
17:45 12.8 °C 7.8 °C 1009.0 hPa SE 20.9 km/h 20.9 km/h 72 % 0.0 mm 49.0 W/m2 SCT
17:50 12.7 °C 8.0 °C 1008.7 hPa SE 20.4 km/h 20.4 km/h 73 % 0.0 mm 49.0 W/m2 SCT
17:55 12.7 °C 8.0 °C 1009.0 hPa ESE 20.4 km/h 20.4 km/h 73 % 0.0 mm 35.0 W/m2 BKN
18:00 12.7 °C 7.9 °C 1009.0 hPa SE 22.2 km/h 22.2 km/h 73 % 0.0 mm 35.0 W/m2 BKN
18:05 12.7 °C 7.7 °C 1009.0 hPa SE 24.1 km/h 24.1 km/h 72 % 0.0 mm 25.0 W/m2 BKN
18:10 12.7 °C 7.7 °C 1009.0 hPa SE 18.5 km/h 18.5 km/h 72 % 0.0 mm 23.0 W/m2 BKN
18:15 12.6 °C 7.7 °C 1009.0 hPa ESE 27.8 km/h 27.8 km/h 72 % 0.0 mm 14.0 W/m2 BKN
18:20 12.6 °C 7.8 °C 1009.0 hPa ESE 31.5 km/h 31.5 km/h 73 % 0.0 mm 12.0 W/m2 BKN
18:25 12.5 °C 8.0 °C 1009.0 hPa ESE 20.4 km/h 20.4 km/h 74 % 0.0 mm 9.0 W/m2 BKN
18:30 12.4 °C 7.9 °C 1009.0 hPa ESE 22.5 km/h 22.5 km/h 74 % 0.0 mm 0.0 W/m2 OVC
18:35 12.4 °C 7.9 °C 1009.0 hPa ESE 35.2 km/h 35.2 km/h 74 % 0.0 mm 0.0 W/m2 OVC
18:40 12.4 °C 7.9 °C 1009.0 hPa ESE 20.4 km/h 20.4 km/h 74 % 0.0 mm 0.0 W/m2 OVC
18:45 12.3 °C 7.8 °C 1009.0 hPa ESE 29.6 km/h 29.6 km/h 74 % 0.0 mm 0.0 W/m2 CLR
18:50 12.4 °C 7.9 °C 1009.0 hPa ESE 37.0 km/h 37.0 km/h 74 % 0.0 mm 0.0 W/m2 CLR
18:55 12.4 °C 7.9 °C 1009.0 hPa SE 35.2 km/h 35.2 km/h 74 % 0.0 mm 0.0 W/m2 CLR
19:00 12.3 °C 8.0 °C 1009.0 hPa SE 29.6 km/h 29.6 km/h 75 % 0.0 mm 0.0 W/m2 CLR
19:05 12.3 °C 7.9 °C 1009.4 hPa SE 31.5 km/h 31.5 km/h 75 % 0.0 mm 0.0 W/m2 CLR
19:10 12.3 °C 7.9 °C 1009.4 hPa SE 25.9 km/h 25.9 km/h 75 % 0.0 mm 0.0 W/m2 CLR
19:15 12.2 °C 7.9 °C 1009.4 hPa SE 27.8 km/h 27.8 km/h 75 % 0.0 mm 0.0 W/m2 CLR
19:20 12.3 °C 7.9 °C 1009.7 hPa SE 29.6 km/h 29.6 km/h 75 % 0.0 mm 0.0 W/m2 CLR
19:25 12.2 °C 7.9 °C 1009.7 hPa SE 27.4 km/h 27.4 km/h 75 % 0.0 mm 0.0 W/m2 CLR
19:30 12.3 °C 7.8 °C 1009.7 hPa SE 29.6 km/h 29.6 km/h 74 % 0.0 mm 0.0 W/m2 CLR
19:35 12.3 °C 7.8 °C 1009.4 hPa SE 27.8 km/h 27.8 km/h 74 % 0.0 mm 0.0 W/m2 CLR
19:40 12.3 °C 7.8 °C 1009.7 hPa SE 31.5 km/h 31.5 km/h 74 % 0.0 mm 0.0 W/m2 CLR
19:45 12.2 °C 7.9 °C 1009.7 hPa SE 29.6 km/h 29.6 km/h 75 % 0.0 mm 0.0 W/m2 CLR
19:50 12.2 °C 7.9 °C 1009.7 hPa SE 30.6 km/h 30.6 km/h 75 % 0.0 mm 0.0 W/m2 CLR
19:55 12.2 °C 7.9 °C 1009.7 hPa SE 40.7 km/h 40.7 km/h 75 % 0.0 mm 0.0 W/m2 CLR
20:00 12.3 °C 7.9 °C 1010.0 hPa SE 31.5 km/h 31.5 km/h 75 % 0.0 mm 0.0 W/m2 CLR
20:05 12.3 °C 7.9 °C 1010.0 hPa SE 31.5 km/h 31.5 km/h 75 % 0.0 mm 0.0 W/m2 CLR
20:10 12.2 °C 7.9 °C 1010.0 hPa SE 24.1 km/h 24.1 km/h 75 % 0.0 mm 0.0 W/m2 CLR
20:15 12.2 °C 7.9 °C 1010.0 hPa SE 20.4 km/h 20.4 km/h 75 % 0.0 mm 0.0 W/m2 CLR
20:20 12.3 °C 7.9 °C 1010.0 hPa SE 27.8 km/h 27.8 km/h 75 % 0.0 mm 0.0 W/m2 CLR
20:25 12.4 °C 7.9 °C 1010.4 hPa SE 29.6 km/h 29.6 km/h 74 % 0.0 mm 0.0 W/m2 CLR
20:30 12.4 °C 8.1 °C 1010.4 hPa SE 22.5 km/h 22.5 km/h 75 % 0.0 mm 0.0 W/m2 CLR
20:35 12.3 °C 8.0 °C 1010.0 hPa ESE 22.2 km/h 22.2 km/h 75 % 0.0 mm 0.0 W/m2 CLR
20:40 12.3 °C 7.9 °C 1010.0 hPa ESE 24.1 km/h 24.1 km/h 75 % 0.0 mm 0.0 W/m2 CLR
20:45 12.2 °C 7.9 °C 1010.0 hPa SE 22.2 km/h 22.2 km/h 75 % 0.0 mm 0.0 W/m2 CLR
20:50 12.2 °C 8.1 °C 1010.0 hPa SE 20.4 km/h 20.4 km/h 76 % 0.0 mm 0.0 W/m2 CLR
20:55 12.2 °C 8.3 °C 1010.0 hPa ESE 22.2 km/h 22.2 km/h 77 % 0.0 mm 0.0 W/m2 CLR
21:00 12.1 °C 8.2 °C 1010.0 hPa ESE 18.5 km/h 18.5 km/h 77 % 0.0 mm 0.0 W/m2 CLR
21:05 12.0 °C 8.3 °C 1010.0 hPa ESE 16.7 km/h 16.7 km/h 78 % 0.0 mm 0.0 W/m2 CLR
21:10 11.9 °C 8.2 °C 1010.0 hPa ESE 16.1 km/h 16.1 km/h 78 % 0.0 mm 0.0 W/m2 CLR
21:15 11.9 °C 8.4 °C 1010.0 hPa East 16.7 km/h 16.7 km/h 79 % 0.0 mm 0.0 W/m2 CLR
21:20 12.0 °C 8.4 °C 1010.0 hPa East 18.5 km/h 18.5 km/h 79 % 0.0 mm 0.0 W/m2 CLR
21:25 12.0 °C 8.4 °C 1010.0 hPa ESE 20.4 km/h 20.4 km/h 79 % 0.0 mm 0.0 W/m2 CLR
21:30 12.0 °C 8.4 °C 1010.0 hPa ESE 14.8 km/h 14.8 km/h 79 % 0.0 mm 0.0 W/m2 CLR
21:35 12.0 °C 8.4 °C 1009.7 hPa ESE 14.8 km/h 14.8 km/h 79 % 0.0 mm 0.0 W/m2 CLR
21:40 11.9 °C 8.4 °C 1009.7 hPa East 9.3 km/h 9.3 km/h 79 % 0.0 mm 0.0 W/m2 CLR
21:45 11.8 °C 8.3 °C 1009.7 hPa ESE 11.1 km/h 11.1 km/h 79 % 0.0 mm 0.0 W/m2 CLR
21:50 11.8 °C 8.3 °C 1009.7 hPa ESE 14.8 km/h 14.8 km/h 79 % 0.0 mm 0.0 W/m2 CLR
21:55 11.9 °C 8.3 °C 1010.0 hPa East 11.1 km/h 11.1 km/h 79 % 0.0 mm 0.0 W/m2 CLR
22:00 11.9 °C 8.2 °C 1010.0 hPa SE 9.3 km/h 9.3 km/h 78 % 0.0 mm 0.0 W/m2 CLR
22:05 11.9 °C 8.2 °C 1010.0 hPa ESE 8.0 km/h 8.0 km/h 78 % 0.0 mm 0.0 W/m2 CLR
22:10 12.0 °C 8.1 °C 1010.0 hPa SE 9.3 km/h 9.3 km/h 77 % 0.0 mm 0.0 W/m2 CLR
22:15 12.0 °C 7.9 °C 1010.0 hPa SE 14.8 km/h 14.8 km/h 76 % 0.0 mm 0.0 W/m2 CLR
22:20 12.1 °C 7.8 °C 1010.0 hPa SE 14.8 km/h 14.8 km/h 75 % 0.0 mm 0.0 W/m2 CLR
22:25 12.2 °C 7.7 °C 1010.0 hPa SE 20.4 km/h 20.4 km/h 74 % 0.0 mm 0.0 W/m2 CLR
22:30 12.3 °C 7.6 °C 1010.0 hPa SE 13.0 km/h 13.0 km/h 73 % 0.0 mm 0.0 W/m2 CLR
22:35 12.2 °C 7.5 °C 1010.0 hPa SE 16.1 km/h 16.1 km/h 73 % 0.0 mm 0.0 W/m2 CLR
22:40 12.3 °C 7.6 °C 1010.4 hPa SSE 18.5 km/h 18.5 km/h 73 % 0.0 mm 0.0 W/m2 CLR
22:45 12.3 °C 7.6 °C 1010.0 hPa SSE 20.4 km/h 20.4 km/h 73 % 0.0 mm 0.0 W/m2 CLR
22:50 12.3 °C 7.4 °C 1010.0 hPa SSE 31.5 km/h 31.5 km/h 72 % 0.0 mm 0.0 W/m2 CLR
22:55 12.4 °C 7.5 °C 1010.0 hPa SSE 20.4 km/h 20.4 km/h 72 % 0.0 mm 0.0 W/m2 CLR
23:00 12.4 °C 7.5 °C 1010.0 hPa SE 16.7 km/h 16.7 km/h 72 % 0.0 mm 0.0 W/m2 CLR
23:05 12.3 °C 7.6 °C 1010.0 hPa SE 13.0 km/h 13.0 km/h 73 % 0.0 mm 0.0 W/m2 CLR
23:10 12.1 °C 7.4 °C 1010.0 hPa SE 9.7 km/h 9.7 km/h 73 % 0.0 mm 0.0 W/m2 CLR
23:15 12.0 °C 7.5 °C 1010.0 hPa ESE 8.0 km/h 8.0 km/h 74 % 0.0 mm 0.0 W/m2 CLR
23:20 11.9 °C 7.4 °C 1010.0 hPa ESE 11.1 km/h 11.1 km/h 74 % 0.0 mm 0.0 W/m2 CLR
23:25 12.0 °C 7.5 °C 1009.7 hPa ESE 13.0 km/h 13.0 km/h 74 % 0.0 mm 0.0 W/m2 CLR
23:30 12.0 °C 7.7 °C 1009.7 hPa ESE 24.1 km/h 24.1 km/h 75 % 0.0 mm 0.0 W/m2 CLR
23:35 12.0 °C 7.7 °C 1010.0 hPa SE 20.4 km/h 20.4 km/h 75 % 0.0 mm 0.0 W/m2 CLR
23:40 12.1 °C 7.9 °C 1010.0 hPa ESE 20.9 km/h 20.9 km/h 76 % 0.0 mm 0.0 W/m2 CLR
23:45 12.1 °C 7.9 °C 1010.0 hPa SE 20.4 km/h 20.4 km/h 76 % 0.0 mm 0.0 W/m2 CLR
23:50 12.1 °C 7.9 °C 1010.0 hPa SE 18.5 km/h 18.5 km/h 76 % 0.0 mm 0.0 W/m2 CLR
23:55 11.9 °C 8.1 °C 1010.0 hPa SE 22.2 km/h 22.2 km/h 77 % 0.0 mm 0.0 W/m2 CLR
Lo Temps de Massalio
Compliments of Weather Underground - 1.25 mb